createdAt,value
2017-09-30T00:00:11.572Z,71.00
2017-09-30T00:02:39.088Z,71.30
2017-09-30T00:05:06.608Z,71.30
2017-09-30T00:07:34.138Z,71.90
2017-09-30T00:10:01.660Z,71.60
2017-09-30T00:12:29.184Z,72.50
2017-09-30T00:14:56.694Z,72.80
2017-09-30T00:17:24.198Z,72.80
2017-09-30T00:19:51.728Z,72.80
2017-09-30T00:22:20.073Z,73.30
2017-09-30T00:24:47.592Z,73.20
2017-09-30T00:27:15.156Z,73.30
2017-09-30T00:29:42.660Z,73.50
2017-09-30T00:32:10.170Z,73.30
2017-09-30T00:34:37.688Z,73.40
2017-09-30T00:37:05.978Z,73.70
2017-09-30T00:39:34.268Z,73.90
2017-09-30T00:42:01.806Z,73.90
2017-09-30T00:44:29.326Z,74.00
2017-09-30T00:46:56.840Z,74.40
2017-09-30T00:49:24.358Z,74.50
2017-09-30T00:51:51.865Z,74.60
2017-09-30T00:54:19.388Z,74.80
2017-09-30T00:56:46.889Z,75.00
2017-09-30T00:59:14.428Z,75.10
2017-09-30T01:01:41.943Z,75.20
2017-09-30T01:04:09.449Z,75.50
2017-09-30T01:06:37.746Z,75.80
2017-09-30T01:09:06.112Z,75.80
2017-09-30T01:11:33.646Z,76.00
2017-09-30T01:14:01.159Z,76.00
2017-09-30T01:16:28.683Z,76.20
2017-09-30T01:18:56.211Z,76.20
2017-09-30T01:21:23.784Z,76.20
2017-09-30T01:23:51.303Z,76.10
2017-09-30T01:26:18.837Z,76.30
2017-09-30T01:28:46.354Z,76.20
2017-09-30T01:31:13.869Z,76.60
2017-09-30T01:33:41.392Z,76.50
2017-09-30T01:36:09.707Z,76.70
2017-09-30T01:38:37.229Z,76.70
2017-09-30T01:41:04.731Z,77.10
2017-09-30T01:43:32.279Z,77.30
2017-09-30T01:45:59.809Z,77.40
2017-09-30T01:48:27.316Z,77.60
2017-09-30T01:50:54.817Z,78.00
2017-09-30T01:53:22.339Z,78.50
2017-09-30T01:55:49.850Z,78.70
2017-09-30T01:58:17.360Z,78.70
2017-09-30T02:00:44.878Z,78.90
2017-09-30T02:03:12.391Z,79.20
2017-09-30T02:05:39.900Z,79.00
2017-09-30T02:08:07.417Z,79.10
2017-09-30T02:10:34.924Z,79.00
2017-09-30T02:13:02.428Z,79.50
2017-09-30T02:15:29.961Z,79.30
2017-09-30T02:17:57.556Z,79.10
2017-09-30T02:20:25.059Z,79.10
2017-09-30T02:22:52.606Z,79.50
2017-09-30T02:25:20.933Z,79.80
2017-09-30T02:27:48.433Z,79.80
2017-09-30T02:30:16.731Z,80.30
2017-09-30T02:32:44.246Z,80.20
2017-09-30T02:35:11.758Z,80.20
2017-09-30T02:37:39.294Z,80.70
2017-09-30T02:40:07.562Z,80.90
2017-09-30T02:42:35.106Z,80.90
2017-09-30T02:45:02.615Z,81.10
2017-09-30T02:47:30.131Z,81.10
2017-09-30T02:49:57.646Z,81.10
2017-09-30T02:52:25.162Z,81.20
2017-09-30T02:54:53.456Z,81.30
2017-09-30T02:57:20.978Z,81.30
2017-09-30T02:59:48.487Z,81.40
2017-09-30T03:02:15.995Z,81.40
2017-09-30T03:04:43.504Z,81.60
2017-09-30T03:07:11.007Z,81.90
2017-09-30T03:09:38.513Z,82.00
2017-09-30T03:12:06.037Z,82.20
2017-09-30T03:14:33.554Z,82.50
2017-09-30T03:17:01.072Z,82.60
2017-09-30T03:19:28.590Z,83.20
2017-09-30T03:21:56.131Z,83.40
2017-09-30T03:24:23.649Z,83.60
2017-09-30T03:26:51.934Z,83.70
2017-09-30T03:29:19.558Z,83.60
2017-09-30T03:31:47.075Z,83.90
2017-09-30T03:34:14.574Z,83.90
2017-09-30T03:36:42.096Z,84.20
2017-09-30T03:39:09.614Z,84.20
2017-09-30T03:41:37.113Z,84.20
2017-09-30T03:44:04.683Z,84.30
2017-09-30T03:46:32.278Z,84.10
2017-09-30T03:48:59.799Z,84.40
2017-09-30T03:51:27.345Z,84.30
2017-09-30T03:53:54.856Z,84.70
2017-09-30T03:56:22.373Z,84.70
2017-09-30T03:58:49.904Z,84.40
2017-09-30T04:01:17.771Z,84.60
2017-09-30T04:03:45.291Z,84.50
2017-09-30T04:06:12.816Z,84.90
2017-09-30T04:08:40.339Z,85.30
2017-09-30T04:11:07.916Z,85.10
2017-09-30T04:13:36.198Z,85.00
2017-09-30T04:16:03.737Z,85.00
2017-09-30T04:18:31.244Z,85.00
2017-09-30T04:20:58.781Z,84.60
2017-09-30T04:23:26.309Z,84.80
2017-09-30T04:25:53.818Z,84.90
2017-09-30T04:28:21.342Z,85.30
2017-09-30T04:30:49.625Z,85.70
2017-09-30T04:33:17.907Z,85.80
2017-09-30T04:35:46.187Z,85.90
2017-09-30T04:38:13.704Z,85.90
2017-09-30T04:40:41.251Z,86.00
2017-09-30T04:43:08.747Z,86.30
2017-09-30T04:45:37.034Z,86.70
2017-09-30T04:48:05.319Z,86.60
2017-09-30T04:50:32.841Z,86.50
2017-09-30T04:53:00.355Z,86.80
2017-09-30T04:55:27.855Z,87.30
2017-09-30T04:57:55.365Z,87.60
2017-09-30T05:00:22.879Z,87.50
2017-09-30T05:02:50.395Z,87.60
2017-09-30T05:05:17.936Z,87.70
2017-09-30T05:07:45.501Z,87.60
2017-09-30T05:10:13.037Z,87.70
2017-09-30T05:12:41.333Z,87.60
2017-09-30T05:15:08.850Z,87.60
2017-09-30T05:17:36.351Z,88.00
2017-09-30T05:20:03.871Z,88.10
2017-09-30T05:22:31.395Z,88.30
2017-09-30T05:24:58.908Z,88.20
2017-09-30T05:27:26.421Z,88.20
2017-09-30T05:29:53.924Z,88.30
2017-09-30T05:32:22.211Z,88.90
2017-09-30T05:34:50.599Z,87.80
2017-09-30T05:37:18.125Z,87.80
2017-09-30T05:39:45.669Z,87.60
2017-09-30T05:42:13.186Z,87.70
2017-09-30T05:44:40.779Z,87.90
2017-09-30T05:47:08.288Z,87.80
2017-09-30T05:49:35.822Z,87.70
2017-09-30T05:52:03.339Z,87.60
2017-09-30T05:54:30.987Z,87.50
2017-09-30T05:56:58.513Z,87.50
2017-09-30T05:59:26.024Z,87.70
2017-09-30T06:01:53.532Z,87.50
2017-09-30T06:04:21.031Z,87.60
2017-09-30T06:06:48.552Z,87.80
2017-09-30T06:09:16.082Z,87.60
2017-09-30T06:11:43.617Z,87.60
2017-09-30T06:14:11.116Z,87.30
2017-09-30T06:16:38.614Z,87.70
2017-09-30T06:19:06.118Z,87.40
2017-09-30T06:21:34.413Z,87.50
2017-09-30T06:24:01.927Z,87.50
2017-09-30T06:26:29.449Z,87.60
2017-09-30T06:28:56.965Z,87.60
2017-09-30T06:31:24.742Z,87.70
2017-09-30T06:33:52.294Z,87.50
2017-09-30T06:36:19.876Z,87.40
2017-09-30T06:38:47.411Z,87.50
2017-09-30T06:41:14.980Z,86.80
2017-09-30T06:43:42.498Z,87.00
2017-09-30T06:46:10.081Z,87.10
2017-09-30T06:48:37.640Z,87.10
2017-09-30T06:51:05.155Z,87.30
2017-09-30T06:53:33.490Z,87.10
2017-09-30T06:56:01.016Z,87.10
2017-09-30T06:58:28.529Z,86.90
2017-09-30T07:00:56.815Z,86.20
2017-09-30T07:03:24.339Z,86.20
2017-09-30T07:05:51.886Z,86.30
2017-09-30T07:08:19.414Z,86.40
2017-09-30T07:10:47.048Z,86.20
2017-09-30T07:13:14.571Z,86.20
2017-09-30T07:15:42.092Z,86.40
2017-09-30T07:18:10.358Z,86.20
2017-09-30T07:20:37.924Z,86.20
2017-09-30T07:23:06.223Z,86.30
2017-09-30T07:25:33.755Z,86.10
2017-09-30T07:28:02.733Z,86.10
2017-09-30T07:30:30.290Z,86.20
2017-09-30T07:32:58.026Z,86.10
2017-09-30T07:35:25.558Z,85.40
2017-09-30T07:37:53.126Z,85.40
2017-09-30T07:40:20.669Z,85.30
2017-09-30T07:42:48.954Z,84.50
2017-09-30T07:45:16.485Z,84.50
2017-09-30T07:47:45.521Z,85.00
2017-09-30T07:50:13.044Z,84.40
2017-09-30T07:52:40.558Z,84.80
2017-09-30T07:55:08.088Z,84.60
2017-09-30T07:57:35.605Z,84.60
2017-09-30T08:00:03.265Z,84.10
2017-09-30T08:02:30.785Z,83.50
2017-09-30T08:04:58.341Z,83.40
2017-09-30T08:07:25.860Z,83.30
2017-09-30T08:09:53.373Z,83.50
2017-09-30T08:12:20.917Z,83.30
2017-09-30T08:14:48.455Z,82.80
2017-09-30T08:17:16.734Z,82.50
2017-09-30T08:19:44.254Z,82.50
2017-09-30T08:22:11.778Z,81.70
2017-09-30T08:24:39.335Z,81.70
2017-09-30T08:27:06.869Z,81.40
2017-09-30T08:29:35.154Z,80.20
2017-09-30T08:32:02.659Z,80.10
2017-09-30T08:34:30.177Z,79.90
2017-09-30T08:36:57.769Z,79.20
2017-09-30T08:39:25.356Z,79.30
2017-09-30T08:41:52.876Z,79.40
2017-09-30T08:44:20.408Z,79.10
2017-09-30T08:46:47.967Z,78.50
2017-09-30T08:49:16.260Z,78.10
2017-09-30T08:51:43.863Z,78.10
2017-09-30T08:54:11.414Z,77.20
2017-09-30T08:56:38.935Z,76.90
2017-09-30T08:59:06.492Z,76.80
2017-09-30T09:01:34.052Z,76.40
2017-09-30T09:04:01.570Z,76.20
2017-09-30T09:06:29.123Z,76.40
2017-09-30T09:08:56.697Z,75.50
2017-09-30T09:11:24.230Z,75.00
2017-09-30T09:13:51.757Z,75.10
2017-09-30T09:16:19.326Z,74.10
2017-09-30T09:18:46.876Z,74.20
2017-09-30T09:21:14.476Z,73.50
2017-09-30T09:23:41.994Z,72.50
2017-09-30T09:26:09.557Z,72.10
2017-09-30T09:28:37.091Z,71.10
2017-09-30T09:31:04.632Z,70.60
2017-09-30T09:33:32.152Z,70.60
2017-09-30T09:35:59.701Z,69.00
2017-09-30T09:38:27.217Z,69.00
2017-09-30T09:40:54.765Z,69.40
2017-09-30T09:43:22.300Z,69.20
2017-09-30T09:45:49.834Z,67.60
2017-09-30T09:48:17.354Z,66.30
2017-09-30T09:50:44.876Z,65.90
2017-09-30T09:53:12.707Z,65.90
2017-09-30T09:55:40.252Z,65.70
2017-09-30T09:58:08.524Z,65.30
2017-09-30T10:00:36.199Z,65.30
2017-09-30T10:03:04.482Z,63.80
2017-09-30T10:05:32.768Z,62.20
2017-09-30T10:08:01.072Z,61.90
2017-09-30T10:10:28.585Z,61.80
2017-09-30T10:12:56.098Z,61.40
2017-09-30T10:15:23.938Z,59.20
2017-09-30T10:17:51.460Z,57.90
2017-09-30T10:20:19.077Z,53.90
2017-09-30T10:22:46.577Z,48.90
2017-09-30T10:25:14.117Z,43.20
2017-09-30T10:27:41.643Z,39.80
2017-09-30T10:30:09.153Z,36.40
2017-09-30T10:32:36.678Z,33.00
2017-09-30T10:35:04.178Z,32.20
2017-09-30T10:37:31.698Z,29.60
2017-09-30T10:39:59.340Z,29.60
2017-09-30T10:42:26.903Z,28.80
2017-09-30T10:44:54.406Z,27.20
2017-09-30T10:47:22.071Z,27.00
2017-09-30T10:49:49.586Z,27.00
2017-09-30T10:52:17.178Z,25.80
2017-09-30T10:54:44.711Z,25.50
2017-09-30T10:57:12.272Z,25.10
2017-09-30T10:59:40.015Z,25.60
2017-09-30T11:02:07.568Z,25.50
2017-09-30T11:04:35.094Z,24.90
2017-09-30T11:07:02.612Z,24.70
2017-09-30T11:09:30.127Z,24.40
2017-09-30T11:11:58.436Z,23.80
2017-09-30T11:14:26.043Z,23.70
2017-09-30T11:16:53.581Z,23.70
2017-09-30T11:19:21.192Z,23.00
2017-09-30T11:21:48.704Z,23.80
2017-09-30T11:24:16.239Z,22.90
2017-09-30T11:26:43.913Z,22.30
2017-09-30T11:29:11.614Z,22.30
2017-09-30T11:31:39.129Z,22.20
2017-09-30T11:34:07.013Z,22.30
2017-09-30T11:36:34.587Z,23.00
2017-09-30T11:39:02.082Z,22.50
2017-09-30T11:41:30.368Z,21.30
2017-09-30T11:43:59.369Z,21.50
2017-09-30T11:46:26.986Z,21.40
2017-09-30T11:48:54.534Z,20.40
2017-09-30T11:51:22.861Z,20.20
2017-09-30T11:53:50.411Z,20.20
2017-09-30T11:56:17.911Z,20.60
2017-09-30T11:58:45.435Z,20.20
2017-09-30T12:01:13.711Z,20.70
2017-09-30T12:03:42.073Z,21.60
2017-09-30T12:06:09.582Z,21.60
2017-09-30T12:08:37.082Z,21.60
2017-09-30T12:11:04.610Z,21.00
2017-09-30T12:13:32.359Z,21.20
2017-09-30T12:15:59.854Z,22.00
2017-09-30T12:18:27.383Z,22.40
2017-09-30T12:20:55.016Z,23.00
2017-09-30T12:23:22.536Z,24.10
2017-09-30T12:25:50.062Z,25.10
2017-09-30T12:28:17.591Z,25.50
2017-09-30T12:30:45.882Z,27.00
2017-09-30T12:33:13.392Z,27.00
2017-09-30T12:35:40.924Z,27.70
2017-09-30T12:38:08.437Z,28.40
2017-09-30T12:40:36.720Z,30.00
2017-09-30T12:43:05.313Z,29.70
2017-09-30T12:45:32.821Z,29.70
2017-09-30T12:48:00.340Z,30.00
2017-09-30T12:50:27.862Z,30.70
2017-09-30T12:52:55.378Z,31.50
2017-09-30T12:55:22.915Z,31.90
2017-09-30T12:57:50.428Z,31.70
2017-09-30T13:00:17.960Z,31.10
2017-09-30T13:02:45.464Z,30.90
2017-09-30T13:05:13.120Z,31.10
2017-09-30T13:07:40.632Z,31.60
2017-09-30T13:10:08.181Z,31.70
2017-09-30T13:12:35.688Z,31.30
2017-09-30T13:15:03.207Z,31.60
2017-09-30T13:17:30.731Z,32.10
2017-09-30T13:19:58.249Z,32.90
2017-09-30T13:22:25.765Z,33.40
2017-09-30T13:24:54.035Z,34.50
2017-09-30T13:27:22.307Z,34.70
2017-09-30T13:29:50.595Z,34.80
2017-09-30T13:32:18.866Z,35.20
2017-09-30T13:34:47.182Z,34.60
2017-09-30T13:37:14.714Z,34.50
2017-09-30T13:39:42.274Z,35.20
2017-09-30T13:42:09.804Z,35.40
2017-09-30T13:44:37.328Z,35.40
2017-09-30T13:47:04.843Z,35.50
2017-09-30T13:49:33.121Z,33.90
2017-09-30T13:52:01.436Z,34.50
2017-09-30T13:54:28.987Z,34.50
2017-09-30T13:56:56.493Z,34.50
2017-09-30T13:59:24.034Z,34.50
2017-09-30T14:01:51.540Z,34.50
2017-09-30T14:04:19.093Z,34.40
2017-09-30T14:06:47.399Z,34.50
2017-09-30T14:09:14.933Z,34.50
2017-09-30T14:11:42.479Z,34.40
2017-09-30T14:14:10.057Z,33.90
2017-09-30T14:16:37.577Z,32.40
2017-09-30T14:19:05.104Z,31.50
2017-09-30T14:21:32.611Z,30.50
2017-09-30T14:24:00.107Z,31.00
2017-09-30T14:26:27.654Z,31.30
2017-09-30T14:28:55.939Z,31.20
2017-09-30T14:31:23.434Z,31.20
2017-09-30T14:33:50.935Z,31.20
2017-09-30T14:36:18.476Z,31.00
2017-09-30T14:38:45.984Z,30.80
2017-09-30T14:41:13.581Z,30.70
2017-09-30T14:43:41.859Z,30.30
2017-09-30T14:46:09.394Z,30.30
2017-09-30T14:48:36.947Z,30.50
2017-09-30T14:51:04.507Z,32.00
2017-09-30T14:53:32.071Z,32.90
2017-09-30T14:56:00.288Z,33.40
2017-09-30T14:58:27.916Z,34.40
2017-09-30T15:00:55.437Z,35.60
2017-09-30T15:03:22.985Z,36.10
2017-09-30T15:05:51.304Z,37.40
2017-09-30T15:08:18.837Z,37.40
2017-09-30T15:10:46.472Z,37.70
2017-09-30T15:13:14.066Z,36.90
2017-09-30T15:15:42.342Z,37.40
2017-09-30T15:18:09.971Z,37.30
2017-09-30T15:20:37.475Z,38.30
2017-09-30T15:23:05.009Z,38.20
2017-09-30T15:25:32.524Z,38.40
2017-09-30T15:28:00.029Z,38.20
2017-09-30T15:30:28.754Z,39.00
2017-09-30T15:32:56.267Z,39.50
2017-09-30T15:35:23.788Z,40.00
2017-09-30T15:37:51.275Z,40.00
2017-09-30T15:40:19.578Z,40.50
2017-09-30T15:42:47.872Z,40.80
2017-09-30T15:45:15.374Z,40.70
2017-09-30T15:47:42.968Z,40.90
2017-09-30T15:50:11.283Z,41.10
2017-09-30T15:52:38.814Z,41.10
2017-09-30T15:55:07.129Z,41.60
2017-09-30T15:57:34.794Z,41.50
2017-09-30T16:00:02.340Z,41.60
2017-09-30T16:02:29.838Z,41.60
2017-09-30T16:04:57.366Z,42.10
2017-09-30T16:07:24.897Z,42.90
2017-09-30T16:09:52.424Z,43.70
2017-09-30T16:12:19.933Z,44.00
2017-09-30T16:14:47.450Z,44.50
2017-09-30T16:17:15.024Z,45.00
2017-09-30T16:19:42.531Z,45.70
2017-09-30T16:22:10.040Z,46.30
2017-09-30T16:24:38.358Z,47.60
2017-09-30T16:27:05.908Z,47.50
2017-09-30T16:29:33.516Z,48.20
2017-09-30T16:32:01.074Z,49.00
2017-09-30T16:34:28.707Z,49.50
2017-09-30T16:36:56.254Z,50.00
2017-09-30T16:39:23.853Z,50.50
2017-09-30T16:41:51.371Z,50.90
2017-09-30T16:44:18.960Z,51.60
2017-09-30T16:46:46.533Z,52.00
2017-09-30T16:49:14.040Z,52.40
2017-09-30T16:51:49.498Z,52.60
2017-09-30T16:54:17.027Z,52.90
2017-09-30T16:56:44.624Z,53.00
2017-09-30T16:59:12.133Z,53.50
2017-09-30T17:01:39.642Z,53.90
2017-09-30T17:04:07.396Z,54.30
2017-09-30T17:06:34.947Z,54.40
2017-09-30T17:09:03.240Z,54.80
2017-09-30T17:11:30.782Z,54.90
2017-09-30T17:13:58.320Z,55.00
2017-09-30T17:16:26.635Z,55.50
2017-09-30T17:18:54.160Z,55.50
2017-09-30T17:21:21.702Z,56.00
2017-09-30T17:23:49.222Z,56.10
2017-09-30T17:26:16.751Z,56.40
2017-09-30T17:28:44.263Z,56.70
2017-09-30T17:31:11.807Z,56.80
2017-09-30T17:33:39.357Z,56.70
2017-09-30T17:36:06.914Z,56.80
2017-09-30T17:38:34.463Z,56.80
2017-09-30T17:41:01.999Z,56.80
2017-09-30T17:43:30.323Z,56.90
2017-09-30T17:45:57.841Z,56.90
2017-09-30T17:48:25.369Z,56.90
2017-09-30T17:50:52.917Z,57.10
2017-09-30T17:53:20.438Z,57.10
2017-09-30T17:55:47.938Z,57.10
2017-09-30T17:58:15.473Z,57.20
2017-09-30T18:00:43.052Z,57.20
2017-09-30T18:03:10.588Z,57.50
2017-09-30T18:05:38.114Z,57.50
2017-09-30T18:08:05.625Z,57.40
2017-09-30T18:10:33.144Z,57.40
2017-09-30T18:13:01.443Z,57.50
2017-09-30T18:15:28.960Z,57.50
2017-09-30T18:17:56.477Z,57.60
2017-09-30T18:20:23.995Z,57.30
2017-09-30T18:22:52.266Z,57.50
2017-09-30T18:25:20.540Z,57.40
2017-09-30T18:27:48.824Z,57.40
2017-09-30T18:30:17.123Z,57.50
2017-09-30T18:32:44.656Z,57.40
2017-09-30T18:35:12.193Z,57.50
2017-09-30T18:37:39.757Z,57.60
2017-09-30T18:40:07.280Z,57.50
2017-09-30T18:42:34.807Z,57.80
2017-09-30T18:45:03.102Z,57.50
2017-09-30T18:47:30.618Z,57.50
2017-09-30T18:49:58.133Z,57.50
2017-09-30T18:52:25.653Z,57.70
2017-09-30T18:54:53.931Z,57.80
2017-09-30T18:57:22.192Z,57.80
2017-09-30T18:59:49.718Z,57.70
2017-09-30T19:02:17.235Z,57.90
2017-09-30T19:04:44.772Z,58.30
2017-09-30T19:07:13.067Z,58.80
2017-09-30T19:09:41.349Z,58.90
2017-09-30T19:12:09.616Z,58.90
2017-09-30T19:14:37.884Z,59.10
2017-09-30T19:17:05.415Z,59.00
2017-09-30T19:19:32.916Z,59.10
2017-09-30T19:22:00.448Z,59.00
2017-09-30T19:24:27.965Z,59.10
2017-09-30T19:26:55.502Z,59.20
2017-09-30T19:29:23.945Z,59.30
2017-09-30T19:31:51.463Z,59.30
2017-09-30T19:34:18.959Z,59.30
2017-09-30T19:36:46.593Z,59.10
2017-09-30T19:39:14.930Z,59.30
2017-09-30T19:41:43.219Z,59.50
2017-09-30T19:44:10.744Z,59.50
2017-09-30T19:46:38.959Z,59.40
2017-09-30T19:49:06.723Z,59.60
2017-09-30T19:51:34.256Z,59.60
2017-09-30T19:54:02.550Z,59.70
2017-09-30T19:56:30.847Z,59.80
2017-09-30T19:58:58.362Z,59.80
2017-09-30T20:01:25.883Z,59.70
2017-09-30T20:03:53.399Z,59.60
2017-09-30T20:06:21.715Z,59.70
2017-09-30T20:08:49.229Z,59.70
2017-09-30T20:11:16.735Z,59.70
2017-09-30T20:13:44.270Z,59.60
2017-09-30T20:16:11.788Z,59.70
2017-09-30T20:18:39.304Z,59.80
2017-09-30T20:21:06.904Z,60.00
2017-09-30T20:23:34.494Z,60.10
2017-09-30T20:26:02.067Z,60.10
2017-09-30T20:28:29.609Z,59.90
2017-09-30T20:30:57.908Z,59.90
2017-09-30T20:33:25.437Z,59.90
2017-09-30T20:35:52.946Z,60.10
2017-09-30T20:38:20.481Z,59.90
2017-09-30T20:40:48.070Z,60.00
2017-09-30T20:43:15.589Z,60.10
2017-09-30T20:45:43.892Z,60.50
2017-09-30T20:48:11.396Z,60.30
2017-09-30T20:50:38.904Z,60.40
2017-09-30T20:53:06.409Z,60.60
2017-09-30T20:55:33.924Z,60.60
2017-09-30T20:58:01.450Z,60.90
2017-09-30T21:00:29.009Z,61.00
2017-09-30T21:02:56.564Z,61.30
2017-09-30T21:05:24.093Z,61.00
2017-09-30T21:07:51.630Z,61.40
2017-09-30T21:10:19.235Z,61.60
2017-09-30T21:12:46.764Z,61.30
2017-09-30T21:15:14.300Z,61.30
2017-09-30T21:17:41.841Z,61.70
2017-09-30T21:20:10.137Z,61.90
2017-09-30T21:22:37.664Z,61.70
2017-09-30T21:25:05.183Z,61.80
2017-09-30T21:27:32.729Z,62.00
2017-09-30T21:30:00.260Z,62.10
2017-09-30T21:32:28.527Z,62.00
2017-09-30T21:34:56.060Z,62.00
2017-09-30T21:37:23.561Z,61.60
2017-09-30T21:39:51.856Z,61.70
2017-09-30T21:42:19.400Z,61.70
2017-09-30T21:44:46.949Z,61.60
2017-09-30T21:47:15.254Z,61.90
2017-09-30T21:49:42.794Z,61.90
2017-09-30T21:52:10.324Z,62.00
2017-09-30T21:54:38.131Z,61.80
2017-09-30T21:57:05.656Z,61.90
2017-09-30T21:59:33.263Z,61.70
2017-09-30T22:02:00.793Z,61.90
2017-09-30T22:04:29.066Z,61.90
2017-09-30T22:06:57.356Z,61.90
2017-09-30T22:09:25.692Z,62.00
2017-09-30T22:11:53.196Z,62.00
2017-09-30T22:14:20.810Z,62.50
2017-09-30T22:16:48.330Z,62.60
2017-09-30T22:19:15.890Z,62.80
2017-09-30T22:21:43.412Z,62.30
2017-09-30T22:24:10.922Z,62.50
2017-09-30T22:26:38.441Z,63.00
2017-09-30T22:29:06.740Z,63.00
2017-09-30T22:31:34.250Z,62.80
2017-09-30T22:34:01.807Z,62.70
2017-09-30T22:36:29.333Z,62.30
2017-09-30T22:38:56.854Z,62.50
2017-09-30T22:41:24.343Z,62.40
2017-09-30T22:43:51.876Z,62.10
2017-09-30T22:46:20.143Z,62.10
2017-09-30T22:48:48.452Z,62.80
2017-09-30T22:51:15.968Z,62.60
2017-09-30T22:53:43.543Z,62.50
2017-09-30T22:56:11.224Z,62.80
2017-09-30T22:58:38.765Z,62.70
2017-09-30T23:01:07.074Z,63.10
2017-09-30T23:03:34.596Z,63.10
2017-09-30T23:06:02.111Z,63.40
2017-09-30T23:08:29.640Z,63.30
2017-09-30T23:10:57.187Z,63.20
2017-09-30T23:13:25.491Z,63.40
2017-09-30T23:15:52.996Z,63.40
2017-09-30T23:18:20.519Z,63.30
2017-09-30T23:20:48.076Z,63.30
2017-09-30T23:23:15.642Z,63.00
2017-09-30T23:25:43.177Z,63.50
2017-09-30T23:28:11.461Z,63.80
2017-09-30T23:30:38.974Z,63.80
2017-09-30T23:33:06.487Z,63.50
2017-09-30T23:35:34.011Z,63.80
2017-09-30T23:38:02.287Z,63.60
2017-09-30T23:40:30.590Z,63.10
2017-09-30T23:42:58.120Z,63.10
2017-09-30T23:45:25.641Z,63.20
2017-09-30T23:47:53.156Z,63.40
2017-09-30T23:50:21.467Z,63.90
2017-09-30T23:52:48.993Z,63.70
2017-09-30T23:55:16.492Z,63.60
2017-09-30T23:57:44.012Z,63.60
